createdAt,value
2019-04-03T00:02:15.560Z,99931.03
2019-04-03T00:04:50.012Z,99929.70
2019-04-03T00:07:21.461Z,99921.76
2019-04-03T00:09:51.690Z,99923.99
2019-04-03T00:12:21.891Z,99921.47
2019-04-03T00:14:52.033Z,99922.47
2019-04-03T00:17:22.135Z,99919.52
2019-04-03T00:19:52.307Z,99923.02
2019-04-03T00:22:22.477Z,99918.19
2019-04-03T00:24:52.937Z,99920.91
2019-04-03T00:27:23.178Z,99931.56
2019-04-03T00:29:54.327Z,99941.30
2019-04-03T00:32:24.661Z,99946.88
2019-04-03T00:34:55.077Z,99946.20
2019-04-03T00:37:25.479Z,99941.80
2019-04-03T00:39:55.660Z,99932.96
2019-04-03T00:42:25.986Z,99931.26
2019-04-03T00:44:56.574Z,99930.84
2019-04-03T00:47:26.832Z,99931.27
2019-04-03T00:49:57.187Z,99941.86
2019-04-03T00:52:28.345Z,99937.58
2019-04-03T00:54:58.820Z,99949.42
2019-04-03T00:57:29.305Z,99954.30
2019-04-03T00:59:59.667Z,99949.48
2019-04-03T01:02:30.056Z,99946.68
2019-04-03T01:05:00.613Z,99950.23
2019-04-03T01:07:30.929Z,99952.52
2019-04-03T01:10:01.301Z,99956.15
2019-04-03T01:12:31.748Z,99955.78
2019-04-03T01:15:02.338Z,99958.91
2019-04-03T01:17:34.875Z,99963.40
2019-04-03T01:20:07.006Z,99962.08
2019-04-03T01:22:39.163Z,99959.43
2019-04-03T01:25:09.597Z,99959.33
2019-04-03T01:27:41.585Z,99957.47
2019-04-03T01:30:14.016Z,99958.22
2019-04-03T01:32:46.065Z,99955.89
2019-04-03T01:35:17.468Z,99955.09
2019-04-03T01:37:50.065Z,99946.73
2019-04-03T01:40:20.835Z,99944.50
2019-04-03T01:42:52.758Z,99941.81
2019-04-03T01:45:25.249Z,99941.44
2019-04-03T01:47:57.624Z,99934.93
2019-04-03T01:50:28.643Z,99931.92
2019-04-03T01:53:01.775Z,99921.88
2019-04-03T01:55:34.126Z,99918.11
2019-04-03T01:58:06.321Z,99919.59
2019-04-03T02:00:37.639Z,99912.34
2019-04-03T02:03:09.750Z,99920.38
2019-04-03T02:05:40.108Z,99919.16
2019-04-03T02:08:10.879Z,99919.20
2019-04-03T02:10:41.400Z,99918.36
2019-04-03T02:13:12.567Z,99916.98
2019-04-03T02:15:42.716Z,99914.72
2019-04-03T02:18:13.602Z,99913.39
2019-04-03T02:20:44.802Z,99901.32
2019-04-03T02:23:16.131Z,99897.62
2019-04-03T02:25:46.333Z,99894.97
2019-04-03T02:28:16.601Z,99899.56
2019-04-03T02:30:47.337Z,99897.23
2019-04-03T02:33:17.839Z,99898.98
2019-04-03T02:35:48.292Z,99889.73
2019-04-03T02:38:21.445Z,99885.34
2019-04-03T02:40:50.758Z,99890.57
2019-04-03T02:43:21.029Z,99885.19
2019-04-03T02:45:51.758Z,99880.80
2019-04-03T02:48:22.124Z,99877.73
2019-04-03T02:50:52.847Z,99877.25
2019-04-03T02:53:27.524Z,99871.39
2019-04-03T02:56:00.801Z,99869.13
2019-04-03T02:58:32.789Z,99866.48
2019-04-03T03:01:06.010Z,99866.10
2019-04-03T03:03:34.896Z,99863.14
2019-04-03T03:06:07.407Z,99859.66
2019-04-03T03:08:40.361Z,99858.53
2019-04-03T03:11:09.997Z,99859.80
2019-04-03T03:13:41.411Z,99855.89
2019-04-03T03:16:14.576Z,99850.18
2019-04-03T03:18:44.705Z,99844.95
2019-04-03T03:21:15.217Z,99849.34
2019-04-03T03:23:45.902Z,99849.02
2019-04-03T03:26:17.618Z,99850.02
2019-04-03T03:28:48.458Z,99846.99
2019-04-03T03:31:19.504Z,99848.75
2019-04-03T03:33:50.257Z,99846.57
2019-04-03T03:36:24.871Z,99846.05
2019-04-03T03:38:54.420Z,99848.75
2019-04-03T03:41:24.865Z,99847.57
2019-04-03T03:43:57.781Z,99850.21
2019-04-03T03:46:30.574Z,99849.84
2019-04-03T03:49:04.853Z,99848.15
2019-04-03T03:51:36.501Z,99849.56
2019-04-03T03:54:07.652Z,99844.38
2019-04-03T03:56:38.351Z,99849.19
2019-04-03T03:59:12.146Z,99848.40
2019-04-03T04:01:42.920Z,99846.69
2019-04-03T04:04:15.281Z,99843.63
2019-04-03T04:06:45.160Z,99838.39
2019-04-03T04:09:18.443Z,99841.09
2019-04-03T04:11:48.635Z,99831.95
2019-04-03T04:14:22.514Z,99836.44
2019-04-03T04:16:51.254Z,99833.37
2019-04-03T04:19:22.628Z,99835.22
2019-04-03T04:21:58.562Z,99843.61
2019-04-03T04:24:30.773Z,99837.91
2019-04-03T04:27:03.193Z,99838.85
2019-04-03T04:29:32.826Z,99837.62
2019-04-03T04:32:02.921Z,99834.13
2019-04-03T04:34:33.065Z,99834.56
2019-04-03T04:37:03.284Z,99838.57
2019-04-03T04:39:38.860Z,99841.72
2019-04-03T04:42:09.025Z,99842.16
2019-04-03T04:44:41.245Z,99836.02
2019-04-03T04:47:15.784Z,99835.16
2019-04-03T04:49:45.959Z,99849.22
2019-04-03T04:52:18.112Z,99844.03
2019-04-03T04:54:48.987Z,99842.29
2019-04-03T04:57:19.159Z,99843.19
2019-04-03T04:59:49.628Z,99848.52
2019-04-03T05:02:20.456Z,99850.20
2019-04-03T05:04:50.674Z,99855.30
2019-04-03T05:07:20.803Z,99850.69
2019-04-03T05:09:51.142Z,99851.95
2019-04-03T05:12:21.285Z,99854.92
2019-04-03T05:14:51.405Z,99853.98
2019-04-03T05:17:21.696Z,99852.61
2019-04-03T05:19:51.979Z,99852.48
2019-04-03T05:22:23.965Z,99862.00
2019-04-03T05:24:53.981Z,99858.80
2019-04-03T05:27:24.336Z,99859.11
2019-04-03T05:29:54.686Z,99863.25
2019-04-03T05:32:26.317Z,99854.22
2019-04-03T05:34:56.576Z,99860.22
2019-04-03T05:37:27.409Z,99862.28
2019-04-03T05:39:57.840Z,99865.67
2019-04-03T05:42:29.185Z,99858.53
2019-04-03T05:45:03.864Z,99854.56
2019-04-03T05:47:33.939Z,99856.16
2019-04-03T05:50:04.768Z,99859.56
2019-04-03T05:52:35.423Z,99862.52
2019-04-03T05:55:06.060Z,99863.58
2019-04-03T05:57:36.314Z,99869.45
2019-04-03T06:00:07.505Z,99869.70
2019-04-03T06:02:37.907Z,99875.70
2019-04-03T06:05:08.219Z,99880.77
2019-04-03T06:07:38.452Z,99882.30
2019-04-03T06:10:08.742Z,99882.19
2019-04-03T06:12:44.581Z,99888.17
2019-04-03T06:15:13.741Z,99889.88
2019-04-03T06:17:43.960Z,99892.83
2019-04-03T06:20:14.166Z,99893.72
2019-04-03T06:22:44.383Z,99894.47
2019-04-03T06:25:14.580Z,99894.66
2019-04-03T06:27:46.293Z,99895.73
2019-04-03T06:30:16.631Z,99894.97
2019-04-03T06:32:47.633Z,99888.13
2019-04-03T06:35:17.757Z,99886.59
2019-04-03T06:37:48.078Z,99893.27
2019-04-03T06:40:18.495Z,99896.63
2019-04-03T06:42:48.820Z,99891.86
2019-04-03T06:45:19.088Z,99893.44
2019-04-03T06:47:49.259Z,99896.63
2019-04-03T06:50:19.532Z,99896.19
2019-04-03T06:52:49.775Z,99895.84
2019-04-03T06:55:20.077Z,99900.18
2019-04-03T06:57:54.874Z,99890.41
2019-04-03T07:00:25.705Z,99893.00
2019-04-03T07:02:55.909Z,99897.36
2019-04-03T07:05:27.756Z,99899.16
2019-04-03T07:08:00.596Z,99902.61
2019-04-03T07:10:29.799Z,99898.98
2019-04-03T07:13:00.494Z,99898.81
2019-04-03T07:15:30.740Z,99896.64
2019-04-03T07:18:01.764Z,99897.17
2019-04-03T07:20:32.492Z,99898.32
2019-04-03T07:23:03.740Z,99895.20
2019-04-03T07:25:34.684Z,99898.61
2019-04-03T07:28:08.279Z,99898.15
2019-04-03T07:30:38.030Z,99898.70
2019-04-03T07:33:08.155Z,99899.68
2019-04-03T07:35:40.631Z,99898.94
2019-04-03T07:38:11.834Z,99893.22
2019-04-03T07:40:43.668Z,99898.20
2019-04-03T07:43:14.320Z,99895.02
2019-04-03T07:45:44.844Z,99894.52
2019-04-03T07:48:17.202Z,99897.74
2019-04-03T07:50:47.707Z,99897.50
2019-04-03T07:53:19.880Z,99895.48
2019-04-03T07:55:49.882Z,99898.61
2019-04-03T07:58:20.087Z,99903.25
2019-04-03T08:00:50.546Z,99908.09
2019-04-03T08:03:21.613Z,99898.33
2019-04-03T08:05:51.841Z,99897.97
2019-04-03T08:08:22.203Z,99898.12
2019-04-03T08:10:52.331Z,99900.00
2019-04-03T08:13:22.897Z,99904.59
2019-04-03T08:15:53.819Z,99900.34
2019-04-03T08:18:24.186Z,99902.45
2019-04-03T08:20:55.135Z,99900.36
2019-04-03T08:23:26.084Z,99902.02
2019-04-03T08:25:56.193Z,99903.70
2019-04-03T08:28:29.557Z,99900.54
2019-04-03T08:30:58.066Z,99910.63
2019-04-03T08:33:28.333Z,99911.09
2019-04-03T08:35:58.525Z,99910.24
2019-04-03T08:38:28.640Z,99914.23
2019-04-03T08:40:59.364Z,99915.79
2019-04-03T08:43:31.526Z,99918.22
2019-04-03T08:46:01.841Z,99921.98
2019-04-03T08:48:32.951Z,99917.47
2019-04-03T08:51:03.923Z,99915.42
2019-04-03T08:53:35.106Z,99909.78
2019-04-03T08:56:05.702Z,99911.88
2019-04-03T08:58:36.461Z,99912.98
2019-04-03T09:01:06.595Z,99908.38
2019-04-03T09:03:36.676Z,99905.98
2019-04-03T09:06:07.649Z,99922.97
2019-04-03T09:08:37.831Z,99927.30
2019-04-03T09:11:08.249Z,99925.87
2019-04-03T09:13:38.399Z,99920.67
2019-04-03T09:16:10.090Z,99919.61
2019-04-03T09:18:40.390Z,99921.59
2019-04-03T09:21:10.584Z,99916.37
2019-04-03T09:23:40.713Z,99920.89
2019-04-03T09:26:10.972Z,99918.85
2019-04-03T09:28:42.193Z,99914.70
2019-04-03T09:31:12.626Z,99915.98
2019-04-03T09:33:42.780Z,99918.83
2019-04-03T09:36:12.915Z,99915.11
2019-04-03T09:38:43.003Z,99909.79
2019-04-03T09:41:13.157Z,99907.13
2019-04-03T09:43:43.696Z,99904.67
2019-04-03T09:46:13.856Z,99899.11
2019-04-03T09:48:43.989Z,99896.31
2019-04-03T09:51:14.242Z,99892.05
2019-04-03T09:53:44.475Z,99896.84
2019-04-03T09:56:14.605Z,99886.19
2019-04-03T09:58:44.788Z,99889.14
2019-04-03T10:01:17.969Z,99885.84
2019-04-03T10:03:46.791Z,99886.04
2019-04-03T10:06:17.312Z,99882.55
2019-04-03T10:08:47.835Z,99874.98
2019-04-03T10:11:20.465Z,99871.80
2019-04-03T10:13:49.869Z,99868.16
2019-04-03T10:16:21.204Z,99870.23
2019-04-03T10:18:51.448Z,99866.36
2019-04-03T10:21:22.222Z,99867.77
2019-04-03T10:24:02.137Z,99861.88
2019-04-03T10:26:32.428Z,99860.22
2019-04-03T10:29:03.374Z,99851.23
2019-04-03T10:31:36.370Z,99838.77
2019-04-03T10:34:06.500Z,99841.43
2019-04-03T10:36:36.950Z,99836.14
2019-04-03T10:39:11.250Z,99825.37
2019-04-03T10:41:41.697Z,99825.61
2019-04-03T10:44:13.010Z,99827.95
2019-04-03T10:46:43.969Z,99831.80
2019-04-03T10:49:19.465Z,99833.09
2019-04-03T10:51:49.660Z,99839.92
2019-04-03T10:54:21.911Z,99837.55
2019-04-03T10:56:54.526Z,99830.08
2019-04-03T10:59:25.309Z,99826.57
2019-04-03T11:01:57.379Z,99815.80
2019-04-03T11:04:27.603Z,99818.02
2019-04-03T11:06:57.905Z,99819.02
2019-04-03T11:09:37.210Z,99813.23
2019-04-03T11:12:10.734Z,99815.09
2019-04-03T11:14:41.523Z,99819.23
2019-04-03T11:17:12.042Z,99819.84
2019-04-03T11:19:44.237Z,99813.28
2019-04-03T11:22:16.717Z,99815.52
2019-04-03T11:24:47.543Z,99804.53
2019-04-03T11:27:17.809Z,99807.17
2019-04-03T11:29:52.712Z,99806.72
2019-04-03T11:32:23.740Z,99806.95
2019-04-03T11:34:54.394Z,99800.72
2019-04-03T11:37:26.265Z,99805.84
2019-04-03T11:40:03.905Z,99801.39
2019-04-03T11:42:31.156Z,99794.94
2019-04-03T11:45:04.615Z,99794.95
2019-04-03T11:47:33.344Z,99788.71
2019-04-03T11:50:03.873Z,99790.42
2019-04-03T11:52:34.290Z,99789.00
2019-04-03T11:55:04.660Z,99782.14
2019-04-03T11:57:35.138Z,99780.02
2019-04-03T12:00:09.653Z,99778.00
2019-04-03T12:02:43.463Z,99776.95
2019-04-03T12:05:14.759Z,99779.37
2019-04-03T12:07:43.924Z,99770.13
2019-04-03T12:10:14.646Z,99771.43
2019-04-03T12:12:45.101Z,99767.25
2019-04-03T12:15:16.437Z,99765.52
2019-04-03T12:17:46.627Z,99760.00
2019-04-03T12:20:17.698Z,99756.79
2019-04-03T12:22:47.934Z,99760.09
2019-04-03T12:25:23.083Z,99753.35
2019-04-03T12:27:53.607Z,99747.38
2019-04-03T12:30:26.355Z,99747.44
2019-04-03T12:32:55.746Z,99744.40
2019-04-03T12:35:26.178Z,99743.73
2019-04-03T12:37:56.791Z,99741.88
2019-04-03T12:40:27.045Z,99753.78
2019-04-03T12:42:57.683Z,99754.11
2019-04-03T12:45:28.312Z,99753.30
2019-04-03T12:47:58.924Z,99752.05
2019-04-03T12:50:29.267Z,99752.09
2019-04-03T12:52:59.902Z,99750.63
2019-04-03T12:55:30.292Z,99744.59
2019-04-03T12:58:02.328Z,99742.69
2019-04-03T13:00:33.653Z,99739.93
2019-04-03T13:03:04.568Z,99735.27
2019-04-03T13:05:37.413Z,99729.81
2019-04-03T13:08:06.716Z,99718.03
2019-04-03T13:10:43.173Z,99723.34
2019-04-03T13:13:12.445Z,99716.46
2019-04-03T13:15:42.741Z,99714.48
2019-04-03T13:18:13.467Z,99710.84
2019-04-03T13:20:44.091Z,99706.88
2019-04-03T13:23:15.569Z,99697.65
2019-04-03T13:25:46.027Z,99692.73
2019-04-03T13:28:16.243Z,99700.72
2019-04-03T13:30:46.543Z,99690.59
2019-04-03T13:33:17.832Z,99686.28
2019-04-03T13:35:49.131Z,99688.20
2019-04-03T13:38:22.873Z,99675.39
2019-04-03T13:40:53.283Z,99663.14
2019-04-03T13:43:23.708Z,99666.38
2019-04-03T13:45:53.876Z,99665.20
2019-04-03T13:48:24.060Z,99657.98
2019-04-03T13:50:55.426Z,99660.36
2019-04-03T13:53:27.891Z,99663.27
2019-04-03T13:55:58.351Z,99670.81
2019-04-03T13:58:29.006Z,99673.09
2019-04-03T14:01:02.414Z,99685.78
2019-04-03T14:03:31.337Z,99676.77
2019-04-03T14:06:02.205Z,99674.16
2019-04-03T14:08:34.181Z,99683.11
2019-04-03T14:11:04.872Z,99668.53
2019-04-03T14:13:35.280Z,99664.61
2019-04-03T14:16:18.190Z,99673.70
2019-04-03T14:18:40.222Z,99668.16
2019-04-03T14:21:10.790Z,99665.95
2019-04-03T14:23:42.084Z,99665.36
2019-04-03T14:26:14.298Z,99661.60
2019-04-03T14:28:44.366Z,99654.62
2019-04-03T14:31:16.686Z,99654.67
2019-04-03T14:33:47.139Z,99650.45
2019-04-03T14:36:19.227Z,99654.95
2019-04-03T14:38:49.693Z,99645.72
2019-04-03T14:41:19.899Z,99645.77
2019-04-03T14:43:50.185Z,99643.84
2019-04-03T14:46:20.459Z,99641.56
2019-04-03T14:48:57.783Z,99637.31
2019-04-03T14:51:28.527Z,99629.80
2019-04-03T14:53:58.780Z,99629.07
2019-04-03T14:56:33.260Z,99620.13
2019-04-03T14:59:03.729Z,99610.11
2019-04-03T15:01:34.167Z,99613.61
2019-04-03T15:04:04.510Z,99626.52
2019-04-03T15:06:36.422Z,99634.72
2019-04-03T15:09:13.656Z,99647.84
2019-04-03T15:11:43.838Z,99654.59
2019-04-03T15:14:14.232Z,99667.42
2019-04-03T15:16:53.039Z,99653.22
2019-04-03T15:19:23.992Z,99658.87
2019-04-03T15:21:58.892Z,99670.74
2019-04-03T15:24:27.330Z,99675.82
2019-04-03T15:27:00.070Z,99682.55
2019-04-03T15:29:36.862Z,99675.66
2019-04-03T15:32:09.787Z,99679.98
2019-04-03T15:34:41.488Z,99677.05
2019-04-03T15:37:15.774Z,99678.56
2019-04-03T15:39:50.638Z,99672.34
2019-04-03T15:42:23.273Z,99679.66
2019-04-03T15:44:57.166Z,99683.54
2019-04-03T15:47:35.258Z,99683.06
2019-04-03T15:50:03.180Z,99677.28
2019-04-03T15:52:56.203Z,99678.08
2019-04-03T15:55:26.558Z,99668.81
2019-04-03T15:57:56.867Z,99665.39
2019-04-03T16:00:28.410Z,99651.61
2019-04-03T16:02:59.089Z,99650.16
2019-04-03T16:05:31.270Z,99646.80
2019-04-03T16:08:01.962Z,99662.20
2019-04-03T16:10:32.781Z,99664.91
2019-04-03T16:13:06.979Z,99666.35
2019-04-03T16:15:40.155Z,99671.27
2019-04-03T16:18:10.418Z,99663.19
2019-04-03T16:20:41.418Z,99661.80
2019-04-03T16:23:14.975Z,99654.56
2019-04-03T16:25:45.174Z,99667.76
2019-04-03T16:28:24.002Z,99675.44
2019-04-03T16:30:55.853Z,99668.48
2019-04-03T16:33:28.979Z,99670.48
2019-04-03T16:35:59.753Z,99665.05
2019-04-03T16:38:30.178Z,99645.94
2019-04-03T16:41:02.348Z,99641.86
2019-04-03T16:43:32.433Z,99654.84
2019-04-03T16:46:02.851Z,99635.08
2019-04-03T16:48:33.910Z,99641.44
2019-04-03T16:51:06.564Z,99639.06
2019-04-03T16:53:49.968Z,99638.31
2019-04-03T16:56:22.085Z,99640.75
2019-04-03T16:58:52.425Z,99645.11
2019-04-03T17:01:28.084Z,99649.13
2019-04-03T17:04:02.841Z,99654.69
2019-04-03T17:06:32.139Z,99653.81
2019-04-03T17:09:05.557Z,99647.51
2019-04-03T17:11:38.512Z,99645.69
2019-04-03T17:14:09.014Z,99649.87
2019-04-03T17:16:40.207Z,99651.80
2019-04-03T17:19:15.803Z,99654.84
2019-04-03T17:21:49.516Z,99655.69
2019-04-03T17:24:19.845Z,99657.83
2019-04-03T17:26:56.071Z,99664.00
2019-04-03T17:29:28.097Z,99669.91
2019-04-03T17:31:58.844Z,99668.32
2019-04-03T17:34:33.887Z,99675.67
2019-04-03T17:37:07.875Z,99667.44
2019-04-03T17:39:38.088Z,99657.87
2019-04-03T17:42:08.620Z,99648.53
2019-04-03T17:44:40.454Z,99644.09
2019-04-03T17:47:12.483Z,99647.67
2019-04-03T17:49:47.724Z,99646.83
2019-04-03T17:52:20.238Z,99644.89
2019-04-03T17:54:50.456Z,99642.82
2019-04-03T17:57:24.313Z,99640.76
2019-04-03T17:59:54.453Z,99636.13
2019-04-03T18:02:25.111Z,99641.95
2019-04-03T18:04:55.553Z,99642.24
2019-04-03T18:07:28.290Z,99636.26
2019-04-03T18:10:00.000Z,99614.56
2019-04-03T18:12:33.637Z,99600.32
2019-04-03T18:15:03.917Z,99592.94
2019-04-03T18:17:35.979Z,99603.36
2019-04-03T18:20:08.374Z,99614.10
2019-04-03T18:22:38.697Z,99610.45
2019-04-03T18:25:09.953Z,99612.28
2019-04-03T18:27:40.109Z,99611.23
2019-04-03T18:30:11.867Z,99606.70
2019-04-03T18:32:45.496Z,99609.56
2019-04-03T18:35:14.670Z,99600.64
2019-04-03T18:37:46.305Z,99599.79
2019-04-03T18:40:16.467Z,99595.98
2019-04-03T18:42:49.380Z,99599.17
2019-04-03T18:45:24.995Z,99600.42
2019-04-03T18:47:51.130Z,99599.45
2019-04-03T18:50:21.631Z,99600.38
2019-04-03T18:52:52.334Z,99594.80
2019-04-03T18:55:23.070Z,99600.98
2019-04-03T18:57:53.348Z,99590.30
2019-04-03T19:00:23.436Z,99589.44
2019-04-03T19:02:59.820Z,99576.89
2019-04-03T19:05:34.152Z,99554.93
2019-04-03T19:08:12.989Z,99554.94
2019-04-03T19:10:36.571Z,99558.43
2019-04-03T19:13:07.293Z,99564.07
2019-04-03T19:15:37.677Z,99574.85
2019-04-03T19:18:19.258Z,99569.84
2019-04-03T19:20:41.398Z,99563.66
2019-04-03T19:23:14.014Z,99559.06
2019-04-03T19:25:44.170Z,99557.58
2019-04-03T19:28:14.473Z,99552.92
2019-04-03T19:30:44.860Z,99537.22
2019-04-03T19:33:15.100Z,99536.08
2019-04-03T19:35:45.345Z,99543.23
2019-04-03T19:38:15.533Z,99545.47
2019-04-03T19:40:45.750Z,99533.31
2019-04-03T19:43:18.469Z,99532.23
2019-04-03T19:45:49.904Z,99527.75
2019-04-03T19:48:20.968Z,99527.38
2019-04-03T19:50:51.370Z,99534.66
2019-04-03T19:53:21.570Z,99534.53
2019-04-03T19:55:54.390Z,99521.30
2019-04-03T19:58:24.238Z,99520.10
2019-04-03T20:00:54.466Z,99501.45
2019-04-03T20:03:26.502Z,99484.19
2019-04-03T20:05:56.726Z,99475.91
2019-04-03T20:08:31.175Z,99473.67
2019-04-03T20:11:04.712Z,99478.27
2019-04-03T20:13:34.209Z,99476.60
2019-04-03T20:16:04.372Z,99480.00
2019-04-03T20:18:34.543Z,99485.52
2019-04-03T20:21:05.539Z,99490.74
2019-04-03T20:23:36.024Z,99497.77
2019-04-03T20:26:06.180Z,99495.63
2019-04-03T20:28:36.814Z,99501.90
2019-04-03T20:31:07.144Z,99490.83
2019-04-03T20:33:37.295Z,99485.32
2019-04-03T20:36:07.466Z,99473.20
2019-04-03T20:38:37.689Z,99471.18
2019-04-03T20:41:07.910Z,99468.09
2019-04-03T20:43:38.356Z,99471.09
2019-04-03T20:46:09.319Z,99468.31
2019-04-03T20:48:39.518Z,99461.03
2019-04-03T20:51:10.653Z,99447.39
2019-04-03T20:53:40.731Z,99450.73
2019-04-03T20:56:10.863Z,99446.83
2019-04-03T20:58:41.163Z,99459.43
2019-04-03T21:01:13.838Z,99456.59
2019-04-03T21:03:44.308Z,99453.20
2019-04-03T21:06:14.894Z,99472.69
2019-04-03T21:08:45.915Z,99502.68
2019-04-03T21:11:16.052Z,99511.05
2019-04-03T21:13:46.511Z,99532.34
2019-04-03T21:16:16.938Z,99546.81
2019-04-03T21:18:47.622Z,99566.56
2019-04-03T21:21:19.054Z,99562.89
2019-04-03T21:23:49.376Z,99559.63
2019-04-03T21:26:19.504Z,99552.01
2019-04-03T21:28:49.727Z,99548.72
2019-04-03T21:31:19.888Z,99565.41
2019-04-03T21:33:51.269Z,99609.45
2019-04-03T21:36:22.482Z,99660.95
2019-04-03T21:38:52.604Z,99686.73
2019-04-03T21:41:22.714Z,99680.92
2019-04-03T21:43:55.353Z,99653.68
2019-04-03T21:46:24.754Z,99644.62
2019-04-03T21:48:54.920Z,99666.64
2019-04-03T21:51:25.093Z,99714.25
2019-04-03T21:53:56.504Z,99746.95
2019-04-03T21:56:26.734Z,99767.86
2019-04-03T21:58:56.828Z,99779.10
2019-04-03T22:01:28.219Z,99788.76
2019-04-03T22:03:58.368Z,99792.83
2019-04-03T22:06:28.632Z,99788.93
2019-04-03T22:09:00.362Z,99777.05
2019-04-03T22:11:34.783Z,99761.45
2019-04-03T22:14:04.528Z,99751.89
2019-04-03T22:16:34.734Z,99733.96
2019-04-03T22:19:04.923Z,99734.73
2019-04-03T22:21:44.808Z,99741.58
2019-04-03T22:24:15.120Z,99751.63
2019-04-03T22:26:45.781Z,99751.49
2019-04-03T22:29:16.010Z,99748.70
2019-04-03T22:31:46.376Z,99729.77
2019-04-03T22:34:19.348Z,99741.16
2019-04-03T22:36:49.593Z,99732.98
2019-04-03T22:39:20.684Z,99720.78
2019-04-03T22:41:51.009Z,99710.13
2019-04-03T22:44:21.536Z,99706.77
2019-04-03T22:46:54.131Z,99699.88
2019-04-03T22:49:24.342Z,99677.34
2019-04-03T22:51:54.668Z,99659.29
2019-04-03T22:54:24.847Z,99636.91
2019-04-03T22:56:55.069Z,99623.82
2019-04-03T22:59:25.319Z,99606.69
2019-04-03T23:01:55.532Z,99589.23
2019-04-03T23:04:25.923Z,99586.84
2019-04-03T23:06:56.398Z,99576.06
2019-04-03T23:09:26.720Z,99579.47
2019-04-03T23:11:57.022Z,99579.35
2019-04-03T23:14:27.303Z,99577.20
2019-04-03T23:16:57.557Z,99571.84
2019-04-03T23:19:28.083Z,99562.48
2019-04-03T23:21:59.459Z,99568.42
2019-04-03T23:24:29.900Z,99572.80
2019-04-03T23:27:02.378Z,99581.37
2019-04-03T23:29:32.292Z,99589.11
2019-04-03T23:32:02.978Z,99589.62
2019-04-03T23:34:33.319Z,99574.87
2019-04-03T23:37:04.859Z,99577.86
2019-04-03T23:39:35.200Z,99564.73
2019-04-03T23:42:06.873Z,99557.69
2019-04-03T23:44:37.748Z,99553.82
2019-04-03T23:47:08.044Z,99557.81
2019-04-03T23:49:41.006Z,99569.19
2019-04-03T23:52:10.429Z,99576.33
2019-04-03T23:54:40.726Z,99587.16
2019-04-03T23:57:11.028Z,99581.88
2019-04-03T23:59:42.434Z,99594.50
